Time;durP1;ratioP1;P1;durP2;ratioP2;P2;SDS_P1;SDS_P2;PMS_P1;PMS_P2;Temp;Humidity;BMP_temperature;BMP_pressure;BME280_temperature;BME280_humidity;BME280_pressure;Samples;Min_cycle;Max_cycle;Signal;HPM_P1;HPM_P2
2023/12/15 06:38:02;;;;;;;61.63;34.03;;;;;;;6.84;100.00;102970.66;4867604;24;19931;-79
2023/12/15 06:40:27;;;;;;;63.80;34.58;;;;;;;6.84;100.00;102968.00;4889087;29;20041;-79
2023/12/15 06:42:53;;;;;;;59.72;36.00;;;;;;;6.85;100.00;102969.72;4896967;29;20092;-80
2023/12/15 06:45:18;;;;;;;60.80;37.40;;;;;;;6.88;100.00;102955.44;4888374;29;20033;-81
2023/12/15 06:47:43;;;;;;;65.65;37.97;;;;;;;6.88;100.00;102956.31;4891310;29;20537;-80
2023/12/15 06:50:11;;;;;;;58.03;36.10;;;;;;;6.88;100.00;102956.31;4884807;29;20025;-81
2023/12/15 06:52:38;;;;;;;66.75;37.40;;;;;;;6.88;100.00;102958.09;4874225;29;20045;-79
2023/12/15 06:55:04;;;;;;;62.40;35.30;;;;;;;6.87;100.00;102970.59;4875970;29;20033;-79
2023/12/15 06:57:29;;;;;;;63.90;38.22;;;;;;;6.88;100.00;102977.72;4893698;29;20088;-79
2023/12/15 06:59:56;;;;;;;61.25;34.28;;;;;;;6.89;100.00;102975.91;4889346;29;20116;-79
2023/12/15 07:02:21;;;;;;;69.60;36.08;;;;;;;6.89;100.00;102987.47;4881708;29;20066;-79
2023/12/15 07:04:46;;;;;;;71.18;36.50;;;;;;;6.91;100.00;102995.44;4884029;29;20036;-81
2023/12/15 07:07:11;;;;;;;63.15;36.42;;;;;;;6.93;100.00;102998.97;4888444;29;20036;-79
2023/12/15 07:09:37;;;;;;;62.13;35.05;;;;;;;6.94;100.00;102996.28;4889683;29;20172;-79
2023/12/15 07:12:03;;;;;;;61.00;34.60;;;;;;;6.95;100.00;103006.03;4893257;29;20032;-80
2023/12/15 07:14:31;;;;;;;68.65;37.83;;;;;;;6.96;100.00;103009.59;4875890;29;20702;-81
2023/12/15 07:16:56;;;;;;;62.92;38.20;;;;;;;6.97;100.00;103022.94;4890651;29;20116;-80
2023/12/15 07:19:21;;;;;;;61.30;37.50;;;;;;;6.95;100.00;103014.03;4873645;29;20032;-80
2023/12/15 07:21:47;;;;;;;59.60;37.10;;;;;;;6.97;100.00;103024.72;4875129;29;20115;-80
2023/12/15 07:24:12;;;;;;;61.60;35.40;;;;;;;6.94;100.00;103012.31;4891948;29;20032;-80
2023/12/15 07:26:38;;;;;;;68.72;38.42;;;;;;;6.97;100.00;103014.03;4887309;29;20037;-79
2023/12/15 07:29:04;;;;;;;55.33;34.42;;;;;;;6.95;100.00;103024.75;4886064;29;20084;-79
2023/12/15 07:31:29;;;;;;;65.55;38.28;;;;;;;6.96;100.00;103044.34;4888532;29;20029;-80
2023/12/15 07:33:54;;;;;;;66.95;37.25;;;;;;;6.96;100.00;103047.91;4889957;29;20060;-79
2023/12/15 07:36:19;;;;;;;59.20;35.95;;;;;;;6.97;100.00;103030.94;4898999;29;20035;-79
2023/12/15 07:38:46;;;;;;;64.20;35.90;;;;;;;6.99;100.00;103030.91;4908297;29;20076;-79
2023/12/15 07:41:11;;;;;;;60.30;35.75;;;;;;;6.99;100.00;103055.84;4897022;29;20448;-80
2023/12/15 07:43:37;;;;;;;59.75;35.03;;;;;;;6.99;100.00;103055.84;4888894;29;20056;-80
2023/12/15 07:46:03;;;;;;;55.40;34.45;;;;;;;7.00;100.00;103054.06;4887931;29;20040;-81
2023/12/15 07:48:28;;;;;;;55.30;35.78;;;;;;;7.03;100.00;103047.75;4875751;29;20101;-80
2023/12/15 07:50:54;;;;;;;65.38;35.92;;;;;;;7.03;100.00;103042.41;4891933;29;20186;-80
2023/12/15 07:53:19;;;;;;;63.17;35.58;;;;;;;7.02;100.00;103041.53;4904293;29;20080;-80
2023/12/15 07:55:45;;;;;;;61.15;36.08;;;;;;;7.01;100.00;103047.78;4897652;29;20055;-80
2023/12/15 07:58:10;;;;;;;70.10;35.95;;;;;;;7.01;100.00;103055.81;4902901;29;20084;-80
2023/12/15 08:00:35;;;;;;;64.40;37.15;;;;;;;7.03;100.00;103062.00;4884919;29;20055;-80
2023/12/15 08:03:00;;;;;;;66.07;37.58;;;;;;;7.04;100.00;103060.22;4881921;29;20044;-81
2023/12/15 08:05:26;;;;;;;71.25;36.50;;;;;;;7.04;100.00;103068.22;4882864;29;20425;-80
2023/12/15 08:07:52;;;;;;;54.20;33.53;;;;;;;7.05;100.00;103070.00;4888547;29;20079;-81
2023/12/15 08:10:17;;;;;;;58.75;34.55;;;;;;;7.05;100.00;103076.22;4901747;29;20043;-80
2023/12/15 08:12:42;;;;;;;63.70;36.20;;;;;;;7.05;100.00;103083.38;4905312;29;20044;-80
2023/12/15 08:15:08;;;;;;;57.28;36.15;;;;;;;7.05;100.00;103084.25;4895286;29;20519;-80
2023/12/15 08:17:33;;;;;;;58.55;35.13;;;;;;;7.04;100.00;103095.84;4879513;29;20063;-81
2023/12/15 08:19:59;;;;;;;63.33;34.28;;;;;;;7.04;100.00;103094.97;4894555;29;20139;-80
2023/12/15 08:22:24;;;;;;;62.30;34.83;;;;;;;7.05;100.00;103100.28;4896712;29;20059;-80
2023/12/15 08:24:50;;;;;;;55.58;32.88;;;;;;;7.06;100.00;103106.50;4877745;29;20457;-80
2023/12/15 08:27:16;;;;;;;55.75;34.60;;;;;;;7.08;100.00;103112.72;4897628;29;20395;-80
2023/12/15 08:29:42;;;;;;;57.65;32.72;;;;;;;7.07;100.00;103105.59;4877399;29;20060;-80
2023/12/15 08:32:08;;;;;;;57.60;32.38;;;;;;;7.07;100.00;103108.25;4878124;29;20533;-80
2023/12/15 08:34:34;;;;;;;54.55;33.28;;;;;;;7.08;100.00;103113.56;4879440;29;20021;-80
2023/12/15 08:36:59;;;;;;;57.92;34.55;;;;;;;7.09;100.00;103118.03;4898316;29;20396;-80
2023/12/15 08:39:25;;;;;;;57.22;32.45;;;;;;;7.10;100.00;103135.84;4896754;29;20032;-80
2023/12/15 08:41:50;;;;;;;56.67;32.95;;;;;;;7.12;100.00;103133.13;4878666;29;20068;-80
2023/12/15 08:44:15;;;;;;;56.20;33.42;;;;;;;7.12;100.00;103146.50;4879511;29;20035;-80
2023/12/15 08:46:41;;;;;;;55.65;31.77;;;;;;;7.14;100.00;103150.00;4894197;29;20428;-80
2023/12/15 08:49:06;;;;;;;55.67;31.55;;;;;;;7.13;100.00;103156.25;4883464;29;20021;-80
2023/12/15 08:51:32;;;;;;;60.08;32.30;;;;;;;7.16;100.00;103173.13;4883066;29;20016;-80
2023/12/15 08:53:57;;;;;;;56.92;31.73;;;;;;;7.18;100.00;103173.09;4895763;29;20027;-79
2023/12/15 08:56:22;;;;;;;63.50;34.55;;;;;;;7.21;100.00;103180.19;4905429;29;20120;-80
2023/12/15 08:58:48;;;;;;;55.63;33.85;;;;;;;7.20;100.00;103168.59;4886189;29;20547;-80
2023/12/15 09:01:13;;;;;;;56.90;33.83;;;;;;;7.19;100.00;103172.19;4885573;29;20040;-80
2023/12/15 09:03:38;;;;;;;56.45;33.25;;;;;;;7.20;100.00;103176.59;4903927;29;20035;-80
2023/12/15 09:06:04;;;;;;;58.83;33.30;;;;;;;7.24;100.00;103175.63;4904613;29;20131;-80
2023/12/15 09:08:29;;;;;;;54.72;32.60;;;;;;;7.25;100.00;103173.84;4885088;29;20068;-80
2023/12/15 09:10:55;;;;;;;55.50;31.02;;;;;;;7.26;100.00;103173.81;4895014;29;20024;-80
2023/12/15 09:13:20;;;;;;;51.45;31.30;;;;;;;7.30;100.00;103166.59;4903645;29;20044;-80
2023/12/15 09:15:46;;;;;;;53.88;32.03;;;;;;;7.30;100.00;103169.28;4900645;29;20058;-80
2023/12/15 09:18:13;;;;;;;48.75;30.13;;;;;;;7.33;100.00;103179.91;4878972;29;20028;-80
2023/12/15 09:20:38;;;;;;;59.70;30.83;;;;;;;7.34;100.00;103179.00;4880468;29;20044;-80
2023/12/15 09:23:09;;;;;;;50.15;29.80;;;;;;;7.34;100.00;103189.69;4895337;29;20376;-80
2023/12/15 09:25:34;;;;;;;49.78;28.92;;;;;;;7.35;100.00;103196.81;4892839;29;20025;-80
2023/12/15 09:28:02;;;;;;;52.10;30.20;;;;;;;7.35;100.00;103205.72;4877928;29;20044;-80
2023/12/15 09:30:27;;;;;;;50.22;29.33;;;;;;;7.37;100.00;103207.47;4898586;29;20037;-80
2023/12/15 09:32:53;;;;;;;51.90;30.13;;;;;;;7.39;100.00;103211.00;4880143;29;20039;-80
2023/12/15 09:35:18;;;;;;;52.88;29.10;;;;;;;7.37;100.00;103202.13;4901196;29;20400;-80
2023/12/15 09:37:43;;;;;;;51.40;29.30;;;;;;;7.38;100.00;103220.81;4898481;29;20404;-80
2023/12/15 09:40:09;;;;;;;56.33;30.00;;;;;;;7.40;100.00;103228.81;4908644;29;20210;-80
2023/12/15 09:42:35;;;;;;;54.88;31.08;;;;;;;7.41;100.00;103235.91;4883407;29;20111;-80
2023/12/15 09:45:00;;;;;;;47.25;27.80;;;;;;;7.42;100.00;103240.34;4890378;29;20103;-80
2023/12/15 09:47:28;;;;;;;49.13;27.52;;;;;;;7.41;100.00;103247.50;4901998;29;20440;-80
2023/12/15 09:49:56;;;;;;;51.83;27.58;;;;;;;7.42;100.00;103248.38;4897922;29;20119;-80
2023/12/15 09:52:25;;;;;;;46.88;27.58;;;;;;;7.41;100.00;103258.22;4902972;29;20142;-80
2023/12/15 09:54:51;;;;;;;54.90;27.73;;;;;;;7.42;100.00;103262.63;4905819;29;20036;-80
2023/12/15 09:57:18;;;;;;;47.70;26.27;;;;;;;7.43;100.00;103267.06;4907665;29;20035;-80
2023/12/15 09:59:43;;;;;;;44.08;27.17;;;;;;;7.45;100.00;103275.06;4908802;29;20024;-80
2023/12/15 10:02:09;;;;;;;50.05;25.42;;;;;;;7.47;100.00;103275.94;4906229;29;20035;-80
2023/12/15 10:04:34;;;;;;;45.55;26.45;;;;;;;7.49;100.00;103266.06;4903912;29;20073;-80
2023/12/15 10:06:59;;;;;;;43.03;25.70;;;;;;;7.49;100.00;103272.28;4887774;29;20494;-81
2023/12/15 10:09:25;;;;;;;46.10;26.10;;;;;;;7.50;100.00;103278.53;4884947;29;20021;-81
2023/12/15 10:11:50;;;;;;;46.45;25.05;;;;;;;7.51;100.00;103290.97;4884633;29;20119;-81
2023/12/15 10:14:19;;;;;;;47.38;25.52;;;;;;;7.49;100.00;103283.00;4884315;29;20364;-81
2023/12/15 10:16:45;;;;;;;43.15;23.73;;;;;;;7.49;100.00;103290.16;4905374;29;20036;-81
2023/12/15 10:19:11;;;;;;;49.00;25.52;;;;;;;7.50;100.00;103290.09;4902761;29;20131;-81
2023/12/15 10:21:36;;;;;;;49.17;25.63;;;;;;;7.52;100.00;103298.09;4875412;29;20555;-81
2023/12/15 10:24:22;;;;;;;43.53;24.83;;;;;;;7.54;100.00;103296.31;4890686;29;20025;-81
2023/12/15 10:26:48;;;;;;;45.50;26.35;;;;;;;7.52;100.00;103303.47;4896681;29;20496;-81
2023/12/15 10:29:15;;;;;;;48.03;24.50;;;;;;;7.55;100.00;103319.44;4903084;29;20021;-81
2023/12/15 10:31:41;;;;;;;42.63;24.48;;;;;;;7.55;100.00;103324.78;4882768;29;20043;-81
2023/12/15 10:34:07;;;;;;;46.30;24.38;;;;;;;7.58;100.00;103319.38;4894197;29;20736;-81
2023/12/15 10:36:34;;;;;;;43.30;24.45;;;;;;;7.62;100.00;103333.59;4880382;29;20059;-81
2023/12/15 10:39:01;;;;;;;48.80;24.23;;;;;;;7.61;100.00;103335.38;4895381;29;20053;-81
2023/12/15 10:41:30;;;;;;;43.97;25.73;;;;;;;7.60;100.00;103333.63;4883788;29;20393;-81
2023/12/15 10:43:58;;;;;;;44.50;23.55;;;;;;;7.64;100.00;103335.34;4901581;29;20096;-78
2023/12/15 10:46:26;;;;;;;47.78;24.17;;;;;;;7.66;100.00;103332.63;4889041;29;20047;-81
2023/12/15 10:48:52;;;;;;;39.35;23.55;;;;;;;7.67;100.00;103335.25;4909380;29;20024;-81
2023/12/15 10:51:24;;;;;;;41.38;21.27;;;;;;;7.69;100.00;103343.25;4898954;29;20036;-81
2023/12/15 10:53:53;;;;;;;39.80;22.23;;;;;;;7.73;100.00;103349.41;4893033;29;20037;-81
2023/12/15 10:56:18;;;;;;;41.95;23.63;;;;;;;7.75;100.00;103347.59;4900697;29;20084;-81
2023/12/15 10:58:45;;;;;;;40.90;22.90;;;;;;;7.77;100.00;103351.13;4893043;29;20049;-81
2023/12/15 11:01:12;;;;;;;41.58;21.13;;;;;;;7.75;100.00;103347.59;4880333;29;20384;-81
2023/12/15 11:03:38;;;;;;;42.15;22.15;;;;;;;7.73;100.00;103361.03;4897427;29;20032;-81
2023/12/15 11:06:04;;;;;;;37.35;21.23;;;;;;;7.74;100.00;103375.28;4898732;29;20100;-81
2023/12/15 11:08:30;;;;;;;38.40;21.50;;;;;;;7.73;100.00;103376.19;4893929;29;20403;-81
2023/12/15 11:10:56;;;;;;;37.63;20.00;;;;;;;7.74;100.00;103381.50;4896755;29;20025;-81
2023/12/15 11:13:49;;;;;;;38.95;21.25;;;;;;;7.76;100.00;103381.47;4883437;29;20025;-81
2023/12/15 11:16:17;;;;;;;39.88;19.65;;;;;;;7.76;100.00;103384.16;4884978;29;20092;-81
2023/12/15 11:18:42;;;;;;;40.15;20.73;;;;;;;7.75;100.00;103385.97;4899459;29;20028;-81
2023/12/15 11:21:11;;;;;;;37.10;19.65;;;;;;;7.78;100.00;103387.69;4903039;29;20055;-81
2023/12/15 11:23:56;;;;;;;37.33;20.10;;;;;;;7.82;100.00;103392.94;4886406;29;20393;-80
2023/12/15 11:26:32;;;;;;;37.65;19.85;;;;;;;7.83;100.00;103391.16;4897679;29;20028;-81
2023/12/15 11:29:08;;;;;;;34.17;18.08;;;;;;;7.84;100.00;103396.47;4883773;29;20039;-81
2023/12/15 11:31:34;;;;;;;35.10;18.60;;;;;;;7.86;100.00;103399.09;4897250;29;20029;-80
2023/12/15 11:34:03;;;;;;;35.53;17.33;;;;;;;7.89;100.00;103388.31;4905881;29;20119;-81
2023/12/15 11:36:30;;;;;;;36.80;17.35;;;;;;;7.90;100.00;103381.19;4882907;29;20036;-81
2023/12/15 11:38:57;;;;;;;34.25;16.83;;;;;;;7.91;100.00;103380.28;4895658;29;20697;-81
2023/12/15 11:41:23;;;;;;;29.98;15.25;;;;;;;7.92;100.00;103372.22;4896881;29;20100;-81
2023/12/15 11:43:52;;;;;;;33.30;17.05;;;;;;;7.95;100.00;103372.16;4881151;29;20810;-81
2023/12/15 11:46:20;;;;;;;35.65;15.27;;;;;;;7.96;100.00;103363.19;4899770;29;20029;-81
2023/12/15 11:48:45;;;;;;;32.85;15.90;;;;;;;7.98;100.00;103361.38;4896108;29;20033;-81
2023/12/15 11:51:11;;;;;;;35.58;15.48;;;;;;;8.00;100.00;103354.19;4899587;29;20516;-80
2023/12/15 11:53:41;;;;;;;35.85;14.95;;;;;;;8.01;100.00;103357.75;4898611;29;20056;-81
2023/12/15 11:56:08;;;;;;;31.95;14.57;;;;;;;8.02;100.00;103359.50;4886574;29;20119;-81
2023/12/15 11:58:35;;;;;;;35.25;14.32;;;;;;;8.03;100.00;103347.88;4890538;29;20133;-81
2023/12/15 12:01:00;;;;;;;36.95;15.18;;;;;;;8.05;100.00;103348.72;4904182;29;20028;-81
2023/12/15 12:03:26;;;;;;;29.75;14.13;;;;;;;8.07;100.00;103357.63;4901347;29;20380;-81
2023/12/15 12:05:54;;;;;;;29.65;12.73;;;;;;;8.05;100.00;103344.25;4882653;29;20035;-81
2023/12/15 12:08:21;;;;;;;29.90;13.13;;;;;;;8.09;100.00;103336.16;4905301;29;20044;-81
2023/12/15 12:10:46;;;;;;;31.73;12.00;;;;;;;8.09;100.00;103326.31;4902812;29;20029;-81
2023/12/15 12:13:12;;;;;;;28.42;12.13;;;;;;;8.10;100.00;103325.41;4901301;29;20084;-81
2023/12/15 12:15:52;;;;;;;28.23;11.82;;;;;;;8.13;100.00;103330.69;4902402;29;20119;-81
2023/12/15 12:18:19;;;;;;;28.48;12.05;;;;;;;8.17;100.00;103328.78;4892127;29;20029;-81
2023/12/15 12:20:45;;;;;;;29.88;11.98;;;;;;;8.20;100.00;103323.41;4892500;29;20036;-81
2023/12/15 12:23:10;;;;;;;32.00;11.90;;;;;;;8.21;100.00;103333.16;4894908;29;20031;-81
2023/12/15 12:25:35;;;;;;;28.92;12.85;;;;;;;8.21;100.00;103360.88;4897717;29;20024;-82
2023/12/15 12:28:01;;;;;;;31.42;11.63;;;;;;;8.22;100.00;103372.44;4888615;29;20483;-81
2023/12/15 12:30:28;;;;;;;28.08;11.60;;;;;;;8.22;100.00;103391.19;4898309;29;20036;-81
2023/12/15 12:32:53;;;;;;;30.35;11.40;;;;;;;8.23;100.00;103383.13;4900215;29;20028;-82
2023/12/15 12:35:18;;;;;;;30.48;11.70;;;;;;;8.25;100.00;103388.44;4903358;29;20175;-81
2023/12/15 12:37:43;;;;;;;24.75;10.82;;;;;;;8.25;100.00;103396.50;4893117;29;20362;-81
2023/12/15 12:40:11;;;;;;;24.80;10.52;;;;;;;8.26;100.00;103392.00;4885003;29;20079;-81
2023/12/15 12:42:37;;;;;;;24.50;10.98;;;;;;;8.27;100.00;103389.28;4886196;29;20400;-81
2023/12/15 12:45:03;;;;;;;27.98;10.32;;;;;;;8.30;100.00;103383.88;4883338;29;20038;-81
2023/12/15 12:47:28;;;;;;;28.90;11.10;;;;;;;8.30;100.00;103386.56;4884955;29;20047;-82
2023/12/15 12:49:54;;;;;;;28.27;11.02;;;;;;;8.30;100.00;103378.53;4898356;29;20028;-81
2023/12/15 12:52:19;;;;;;;26.98;11.13;;;;;;;8.30;100.00;103383.88;4899066;29;20036;-81
2023/12/15 12:54:45;;;;;;;23.35;9.27;;;;;;;8.30;100.00;103388.34;4884520;29;20445;-81
2023/12/15 12:57:10;;;;;;;27.00;9.25;;;;;;;8.29;100.00;103392.81;4880161;29;20507;-81
2023/12/15 12:59:41;;;;;;;34.05;11.57;;;;;;;8.32;100.00;103395.44;4898462;29;20035;-82
2023/12/15 13:02:07;;;;;;;23.75;9.43;;;;;;;8.32;100.00;103389.22;4886362;29;20052;-81
2023/12/15 13:04:36;;;;;;;25.50;10.10;;;;;;;8.33;100.00;103402.56;4883507;29;20445;-81
2023/12/15 13:07:01;;;;;;;30.88;10.27;;;;;;;8.34;100.00;103401.63;4896867;29;20036;-81
2023/12/15 13:09:26;;;;;;;26.88;9.05;;;;;;;8.34;100.00;103388.22;4900611;29;20444;-82
2023/12/15 13:11:52;;;;;;;27.55;8.55;;;;;;;8.37;100.00;103398.00;4885997;29;20533;-81
2023/12/15 13:14:18;;;;;;;30.15;8.73;;;;;;;8.35;100.00;103411.44;4873637;29;20036;-81
2023/12/15 13:16:45;;;;;;;21.35;7.32;;;;;;;8.35;100.00;103406.06;4878282;29;20364;-81
2023/12/15 13:19:10;;;;;;;23.10;7.47;;;;;;;8.37;100.00;103392.66;4881904;29;20395;-81
2023/12/15 13:21:36;;;;;;;25.33;8.07;;;;;;;8.37;100.00;103398.88;4894367;29;20099;-81
2023/12/15 13:24:01;;;;;;;19.80;7.68;;;;;;;8.36;100.00;103401.59;4893022;29;20024;-82
2023/12/15 13:26:27;;;;;;;26.27;8.52;;;;;;;8.37;100.00;103412.28;4882198;29;20027;-81
2023/12/15 13:28:55;;;;;;;25.13;7.53;;;;;;;8.37;100.00;103406.91;4899879;29;20028;-82
2023/12/15 13:31:21;;;;;;;26.15;8.15;;;;;;;8.36;100.00;103399.81;4883184;29;20081;-81
2023/12/15 13:33:47;;;;;;;23.98;8.20;;;;;;;8.38;100.00;103397.09;4900089;29;20321;-81
2023/12/15 13:36:17;;;;;;;27.30;7.90;;;;;;;8.36;100.00;103388.19;4893090;29;20020;-81
2023/12/15 13:38:43;;;;;;;28.80;9.13;;;;;;;8.36;100.00;103391.78;4884123;29;20060;-81
2023/12/15 13:41:10;;;;;;;22.55;7.28;;;;;;;8.36;100.00;103394.44;4903648;29;20400;-81
2023/12/15 13:43:37;;;;;;;24.95;7.55;;;;;;;8.36;100.00;103388.19;4904289;29;20155;-81
2023/12/15 13:46:03;;;;;;;22.30;6.80;;;;;;;8.36;100.00;103390.88;4904920;29;20056;-81
2023/12/15 13:48:29;;;;;;;26.60;7.45;;;;;;;8.36;100.00;103399.81;4884239;29;20115;-81
2023/12/15 13:50:54;;;;;;;25.95;7.90;;;;;;;8.37;100.00;103398.88;4901880;29;20101;-81
2023/12/15 13:53:19;;;;;;;28.83;7.13;;;;;;;8.37;100.00;103398.00;4902330;29;20029;-81
2023/12/15 13:55:45;;;;;;;25.63;8.02;;;;;;;8.36;100.00;103404.28;4903609;29;20028;-81
2023/12/15 13:58:10;;;;;;;21.83;6.63;;;;;;;8.35;100.00;103406.06;4897997;29;20385;-81
2023/12/15 14:00:35;;;;;;;20.75;6.28;;;;;;;8.33;100.00;103405.25;4894164;29;20048;-81
2023/12/15 14:03:01;;;;;;;21.73;6.05;;;;;;;8.33;100.00;103407.94;4889627;29;20370;-81
2023/12/15 14:05:26;;;;;;;21.92;6.10;;;;;;;8.31;100.00;103409.75;4879515;29;20551;-81
2023/12/15 14:07:52;;;;;;;21.05;6.47;;;;;;;8.30;100.00;103426.75;4896285;29;20044;-81
2023/12/15 14:10:18;;;;;;;20.33;6.03;;;;;;;8.29;100.00;103427.66;4871541;29;20048;-81
2023/12/15 14:12:46;;;;;;;19.98;5.90;;;;;;;8.29;100.00;103419.63;4897737;29;20058;-81
2023/12/15 14:15:12;;;;;;;22.00;6.07;;;;;;;8.28;100.00;103417.84;4895936;29;20039;-81
2023/12/15 14:17:38;;;;;;;22.95;5.95;;;;;;;8.29;100.00;103430.34;4893304;29;20483;-81
2023/12/15 14:20:07;;;;;;;25.05;6.30;;;;;;;8.29;100.00;103433.03;4894185;29;20104;-81
2023/12/15 14:22:35;;;;;;;23.40;5.32;;;;;;;8.29;100.00;103435.69;4895490;29;20041;-81
2023/12/15 14:25:06;;;;;;;21.77;6.20;;;;;;;8.29;100.00;103441.06;4878175;29;20037;-81
2023/12/15 14:27:32;;;;;;;19.38;5.20;;;;;;;8.29;100.00;103442.88;4880783;29;20021;-81
2023/12/15 14:29:58;;;;;;;24.05;5.80;;;;;;;8.28;100.00;103458.03;4875772;29;20028;-81
2023/12/15 14:32:23;;;;;;;22.25;5.85;;;;;;;8.27;100.00;103463.44;4884606;29;20088;-81
2023/12/15 14:34:49;;;;;;;17.45;4.90;;;;;;;8.26;100.00;103467.91;4903854;29;20052;-81
2023/12/15 14:37:16;;;;;;;18.33;4.55;;;;;;;8.23;100.00;103468.88;4894766;29;20052;-81
2023/12/15 14:39:41;;;;;;;19.80;4.95;;;;;;;8.24;100.00;103475.09;4896897;29;20099;-81
2023/12/15 14:42:06;;;;;;;18.20;5.13;;;;;;;8.23;100.00;103478.72;4895357;29;20457;-81
2023/12/15 14:44:32;;;;;;;20.48;5.50;;;;;;;8.21;100.00;103478.75;4875864;29;20032;-81
2023/12/15 14:46:57;;;;;;;13.20;3.97;;;;;;;8.21;100.00;103480.50;4889245;29;20108;-81
2023/12/15 14:49:23;;;;;;;17.63;5.13;;;;;;;8.18;100.00;103484.13;4876753;29;20334;-81
2023/12/15 14:51:48;;;;;;;24.02;5.57;;;;;;;8.19;100.00;103469.84;4884258;29;20031;-81
2023/12/15 14:54:13;;;;;;;18.00;4.85;;;;;;;8.18;100.00;103462.69;4897037;29;20063;-81
2023/12/15 14:56:38;;;;;;;19.27;5.35;;;;;;;8.16;100.00;103453.84;4895029;29;20459;-81
2023/12/15 14:59:04;;;;;;;24.05;6.00;;;;;;;8.15;100.00;103459.22;4900922;29;20028;-81
2023/12/15 15:01:29;;;;;;;19.92;5.20;;;;;;;8.12;100.00;103464.66;4903472;29;20039;-81
2023/12/15 15:03:54;;;;;;;21.25;4.55;;;;;;;8.09;100.00;103465.59;4904067;29;20100;-81
2023/12/15 15:06:20;;;;;;;20.55;4.50;;;;;;;8.09;100.00;103475.44;4890109;29;20162;-81
2023/12/15 15:08:45;;;;;;;15.32;3.83;;;;;;;8.04;100.00;103471.03;4896116;29;20106;-81
2023/12/15 15:11:11;;;;;;;18.52;4.80;;;;;;;8.02;100.00;103470.22;4901152;29;20020;-81
2023/12/15 15:13:38;;;;;;;21.45;5.55;;;;;;;8.03;100.00;103477.31;4902682;29;20037;-81
2023/12/15 15:16:04;;;;;;;20.73;4.63;;;;;;;8.03;100.00;103474.63;4880624;29;20033;-81
2023/12/15 15:18:32;;;;;;;17.38;4.75;;;;;;;8.00;100.00;103471.16;4903756;29;20028;-81
2023/12/15 15:20:57;;;;;;;21.45;4.68;;;;;;;7.99;100.00;103464.88;4903490;29;20091;-81
2023/12/15 15:23:22;;;;;;;24.27;5.50;;;;;;;7.98;100.00;103473.84;4893729;29;20021;-81
2023/12/15 15:25:47;;;;;;;18.17;4.65;;;;;;;7.95;100.00;103473.00;4887739;29;20040;-81
2023/12/15 15:28:13;;;;;;;17.38;4.95;;;;;;;7.93;100.00;103473.03;4882542;29;20032;-81
2023/12/15 15:30:42;;;;;;;19.13;4.50;;;;;;;7.92;100.00;103471.31;4883543;29;20055;-81
2023/12/15 15:33:07;;;;;;;17.13;4.60;;;;;;;7.91;100.00;103476.69;4897474;29;20124;-81
2023/12/15 15:35:32;;;;;;;17.67;4.35;;;;;;;7.89;100.00;103484.72;4907467;29;20040;-81
2023/12/15 15:37:58;;;;;;;18.90;4.55;;;;;;;7.85;100.00;103493.75;4903075;29;20084;-81
2023/12/15 15:40:24;;;;;;;14.18;3.97;;;;;;;7.80;100.00;103501.84;4883778;29;20115;-81
2023/12/15 15:42:51;;;;;;;15.07;3.65;;;;;;;7.79;100.00;103502.78;4883453;29;20520;-81
2023/12/15 15:45:18;;;;;;;17.90;4.18;;;;;;;7.80;100.00;103507.19;4885801;29;20499;-81
2023/12/15 15:47:43;;;;;;;17.10;3.88;;;;;;;7.77;100.00;103512.63;4900697;29;20406;-81
2023/12/15 15:50:09;;;;;;;15.73;3.58;;;;;;;7.75;100.00;103514.47;4897313;29;20115;-81
2023/12/15 15:52:36;;;;;;;15.25;3.85;;;;;;;7.72;100.00;103524.31;4902565;29;20412;-81
2023/12/15 15:55:02;;;;;;;15.80;4.00;;;;;;;7.67;100.00;103535.13;4906281;29;20039;-81
2023/12/15 15:57:27;;;;;;;17.30;3.80;;;;;;;7.67;100.00;103528.00;4883124;29;20442;-81
2023/12/15 15:59:54;;;;;;;17.75;4.32;;;;;;;7.64;100.00;103536.06;4881627;29;20142;-81
2023/12/15 16:02:20;;;;;;;13.23;3.67;;;;;;;7.66;100.00;103538.72;4882732;29;20095;-81
2023/12/15 16:04:46;;;;;;;15.68;3.92;;;;;;;7.64;100.00;103544.09;4882633;29;20028;-81
2023/12/15 16:07:11;;;;;;;11.40;3.22;;;;;;;7.67;100.00;103554.75;4903413;29;20043;-81
2023/12/15 16:09:36;;;;;;;17.58;3.80;;;;;;;7.66;100.00;103557.47;4903855;29;20044;-81
2023/12/15 16:12:02;;;;;;;15.32;4.03;;;;;;;7.66;100.00;103563.69;4890958;29;20030;-81
2023/12/15 16:14:27;;;;;;;17.15;4.18;;;;;;;7.68;100.00;103569.88;4905112;29;20036;-81
2023/12/15 16:16:53;;;;;;;17.70;3.95;;;;;;;7.70;100.00;103556.47;4882675;29;20380;-81
2023/12/15 16:19:18;;;;;;;15.43;3.80;;;;;;;7.72;100.00;103540.38;4902314;29;20036;-81
2023/12/15 16:21:44;;;;;;;16.50;3.42;;;;;;;7.71;100.00;103544.88;4888597;29;20034;-81
2023/12/15 16:24:10;;;;;;;14.80;4.15;;;;;;;7.70;100.00;103552.03;4896414;29;20032;-81
2023/12/15 16:26:35;;;;;;;17.92;4.40;;;;;;;7.70;100.00;103533.28;4904415;29;20073;-81
2023/12/15 16:29:02;;;;;;;13.30;2.92;;;;;;;7.72;100.00;103538.59;4881879;29;20028;-81
2023/12/15 16:31:27;;;;;;;17.08;4.03;;;;;;;7.73;100.00;103531.44;4889330;29;20024;-81
2023/12/15 16:33:53;;;;;;;18.80;3.67;;;;;;;7.75;100.00;103518.94;4888012;29;20024;-81
2023/12/15 16:36:23;;;;;;;18.40;3.80;;;;;;;7.74;100.00;103518.03;4899467;29;20037;-81
2023/12/15 16:38:48;;;;;;;18.02;3.95;;;;;;;7.74;100.00;103514.47;4897679;29;20400;-81
2023/12/15 16:41:30;;;;;;;14.48;4.22;;;;;;;7.76;100.00;103518.00;4881024;29;20037;-81
2023/12/15 16:43:56;;;;;;;13.88;3.58;;;;;;;7.73;99.45;103526.09;4878430;29;20456;-81
2023/12/15 16:46:22;;;;;;;14.80;4.20;;;;;;;7.70;100.00;103546.66;4894738;29;20028;-81
2023/12/15 16:48:53;;;;;;;19.33;4.70;;;;;;;7.68;100.00;103555.63;4883146;29;20522;-81
2023/12/15 16:51:19;;;;;;;17.17;4.25;;;;;;;7.69;100.00;103541.34;4901666;29;20031;-81
2023/12/15 16:53:45;;;;;;;13.85;3.90;;;;;;;7.70;100.00;103540.41;4900841;29;20388;-81
2023/12/15 16:56:11;;;;;;;22.70;7.03;;;;;;;7.70;100.00;103553.78;4889334;29;20028;-81
2023/12/15 16:58:38;;;;;;;36.30;14.88;;;;;;;7.69;100.00;103552.94;4890370;29;21202;-81
2023/12/15 17:01:03;;;;;;;42.25;21.70;;;;;;;7.71;100.00;103555.56;4873868;29;20122;-81
2023/12/15 17:03:29;;;;;;;38.55;20.80;;;;;;;7.70;100.00;103559.16;4886711;29;20157;-81
2023/12/15 17:05:54;;;;;;;79.95;46.97;;;;;;;7.67;100.00;103568.16;4904625;29;20035;-81
2023/12/15 17:08:20;;;;;;;60.58;34.53;;;;;;;7.66;100.00;103576.19;4909795;29;20349;-80
2023/12/15 17:10:46;;;;;;;56.22;30.80;;;;;;;7.64;100.00;103578.00;4911211;29;20032;-80
2023/12/15 17:13:11;;;;;;;23.27;7.68;;;;;;;7.65;100.00;103583.31;4903178;29;20104;-80
2023/12/15 17:15:36;;;;;;;25.30;12.40;;;;;;;7.65;100.00;103588.69;4889614;29;20060;-80
2023/12/15 17:18:02;;;;;;;33.70;19.05;;;;;;;7.59;100.00;103591.47;4904718;29;20026;-80
2023/12/15 17:20:27;;;;;;;32.40;14.27;;;;;;;7.53;100.00;103595.13;4890010;29;20031;-80
2023/12/15 17:22:52;;;;;;;31.50;13.95;;;;;;;7.50;100.00;103599.66;4905833;29;20035;-80
2023/12/15 17:25:18;;;;;;;29.45;13.27;;;;;;;7.48;100.00;103601.44;4885297;29;20062;-80
2023/12/15 17:27:43;;;;;;;24.80;8.20;;;;;;;7.47;100.00;103607.75;4891735;29;20266;-80
2023/12/15 17:30:09;;;;;;;23.08;8.32;;;;;;;7.45;100.00;103615.78;4904214;29;20033;-80
2023/12/15 17:32:34;;;;;;;23.42;8.38;;;;;;;7.43;100.00;103606.00;4908031;29;20076;-82
2023/12/15 17:34:59;;;;;;;28.95;12.95;;;;;;;7.44;100.00;103606.00;4892867;29;20166;-80
2023/12/15 17:37:25;;;;;;;26.70;12.48;;;;;;;7.44;100.00;103591.72;4890406;29;20047;-81
2023/12/15 17:39:50;;;;;;;20.73;5.93;;;;;;;7.48;100.00;103580.03;4903486;29;20036;-80
2023/12/15 17:42:15;;;;;;;18.65;6.10;;;;;;;7.48;100.00;103572.91;4892515;29;20036;-79
2023/12/15 17:44:41;;;;;;;19.67;6.93;;;;;;;7.51;100.00;103577.31;4905688;29;20180;-80